Time;durP1;ratioP1;P1;durP2;ratioP2;P2;SDS_P1;SDS_P2;PMS_P1;PMS_P2;Temp;Humidity;BMP_temperature;BMP_pressure;BME280_temperature;BME280_humidity;BME280_pressure;Samples;Min_cycle;Max_cycle;Signal;HPM_P1;HPM_P2
2022/04/02 00:01:28;;;;;;;26.83;16.30;;;0.30;99.90;;;;;;4992427;28;20045;-75
2022/04/02 00:03:54;;;;;;;23.10;14.23;;;0.30;99.90;;;;;;4989568;28;20076;-72
2022/04/02 00:06:20;;;;;;;29.25;17.60;;;0.30;99.90;;;;;;5000253;28;20061;-72
2022/04/02 00:08:46;;;;;;;23.75;14.77;;;0.30;99.90;;;;;;4998170;28;20045;-72
2022/04/02 00:11:12;;;;;;;26.15;15.70;;;0.30;99.90;;;;;;5004446;28;20033;-73
2022/04/02 00:13:38;;;;;;;26.70;15.88;;;0.30;99.90;;;;;;5005899;28;20036;-73
2022/04/02 00:16:05;;;;;;;23.95;14.20;;;0.30;99.90;;;;;;5002369;28;20105;-73
2022/04/02 00:18:30;;;;;;;25.67;15.35;;;0.30;99.90;;;;;;5001714;28;20043;-73
2022/04/02 00:20:57;;;;;;;23.67;15.05;;;0.20;99.90;;;;;;5001977;28;20022;-73
2022/04/02 00:23:43;;;;;;;24.20;15.15;;;0.20;99.90;;;;;;4996108;28;20121;-72
2022/04/02 00:26:14;;;;;;;27.63;16.30;;;0.20;99.90;;;;;;5000530;28;20053;-73
2022/04/02 00:28:41;;;;;;;23.50;14.77;;;0.20;99.90;;;;;;4997834;28;20371;-72
2022/04/02 00:31:08;;;;;;;23.70;14.63;;;0.20;99.90;;;;;;4998590;28;20032;-73
2022/04/02 00:33:35;;;;;;;24.70;14.90;;;0.20;99.90;;;;;;5003480;28;20149;-72
2022/04/02 00:36:01;;;;;;;21.48;13.32;;;0.20;99.90;;;;;;5003821;28;20037;-73
2022/04/02 00:38:27;;;;;;;26.58;15.43;;;0.20;99.90;;;;;;5003905;28;20030;-72
2022/04/02 00:40:53;;;;;;;24.90;14.95;;;0.30;99.90;;;;;;5004078;28;20025;-72
2022/04/02 00:43:30;;;;;;;24.45;14.65;;;0.30;99.90;;;;;;5032477;22;20064;-69
2022/04/02 00:45:58;;;;;;;25.38;15.35;;;0.30;99.90;;;;;;5026601;28;20029;-70
2022/04/02 00:48:26;;;;;;;22.75;14.02;;;0.20;99.90;;;;;;5029102;28;20034;-70
2022/04/02 00:50:55;;;;;;;25.27;13.95;;;0.20;99.90;;;;;;5026715;28;20092;-70
2022/04/02 00:53:25;;;;;;;22.23;13.50;;;0.20;99.90;;;;;;5025109;28;20300;-70
2022/04/02 00:55:51;;;;;;;23.88;14.32;;;0.20;99.90;;;;;;5022846;28;20104;-71
2022/04/02 00:58:17;;;;;;;22.73;13.50;;;0.20;99.90;;;;;;5024027;28;20179;-70
2022/04/02 01:00:44;;;;;;;25.33;15.35;;;0.20;99.90;;;;;;5023656;28;20057;-70
2022/04/02 01:03:13;;;;;;;27.83;15.13;;;0.20;99.90;;;;;;5026985;28;20036;-71
2022/04/02 01:05:40;;;;;;;25.20;14.95;;;0.20;99.90;;;;;;5020335;28;20029;-70
2022/04/02 01:08:09;;;;;;;25.17;15.00;;;0.20;99.90;;;;;;5021752;28;20021;-71
2022/04/02 01:10:36;;;;;;;23.35;14.43;;;0.20;99.90;;;;;;5028009;28;20033;-71
2022/04/02 01:13:03;;;;;;;22.98;13.95;;;0.20;99.90;;;;;;5017729;28;20030;-70
2022/04/02 01:15:28;;;;;;;24.35;14.30;;;0.20;99.90;;;;;;5026864;28;20093;-70
2022/04/02 01:17:55;;;;;;;23.75;13.88;;;0.30;99.90;;;;;;5020690;28;20383;-70
2022/04/02 01:20:22;;;;;;;22.52;13.70;;;0.20;99.90;;;;;;5015855;28;20029;-70
2022/04/02 01:22:48;;;;;;;23.70;14.55;;;0.30;99.90;;;;;;5023417;28;20118;-70
2022/04/02 01:25:23;;;;;;;25.27;15.77;;;0.20;99.90;;;;;;5020536;28;20505;-70
2022/04/02 01:27:49;;;;;;;27.58;16.30;;;0.20;99.90;;;;;;5025854;28;20036;-70
2022/04/02 01:30:15;;;;;;;25.60;15.95;;;0.20;99.90;;;;;;5021183;28;20033;-70
2022/04/02 01:32:42;;;;;;;27.30;16.13;;;0.20;99.90;;;;;;5017586;28;20397;-70
2022/04/02 01:35:09;;;;;;;24.80;15.43;;;0.30;99.90;;;;;;5019593;28;20041;-70
2022/04/02 01:37:35;;;;;;;24.60;14.82;;;0.30;99.90;;;;;;5020611;28;20036;-70
2022/04/02 01:40:04;;;;;;;28.30;16.67;;;0.30;99.90;;;;;;5019885;28;20099;-70
2022/04/02 01:42:33;;;;;;;31.10;16.98;;;0.30;99.90;;;;;;5018409;28;20513;-70
2022/04/02 01:44:59;;;;;;;28.58;16.10;;;0.30;99.90;;;;;;5023410;28;20053;-70
2022/04/02 01:47:25;;;;;;;30.65;18.30;;;0.30;99.90;;;;;;5020845;28;20042;-70
2022/04/02 01:49:51;;;;;;;27.85;16.50;;;0.30;99.90;;;;;;5020526;28;20686;-70
2022/04/02 01:52:19;;;;;;;27.67;16.10;;;0.20;99.90;;;;;;5020258;28;20044;-70
2022/04/02 01:54:46;;;;;;;29.20;17.13;;;0.30;99.90;;;;;;5020555;28;20079;-70
2022/04/02 01:57:13;;;;;;;29.85;16.77;;;0.30;99.90;;;;;;5021252;28;20020;-70
2022/04/02 01:59:44;;;;;;;31.70;17.15;;;0.30;99.90;;;;;;5019391;28;20398;-70
2022/04/02 02:02:10;;;;;;;27.02;16.92;;;0.30;99.90;;;;;;5021429;28;20077;-70
2022/04/02 02:04:37;;;;;;;31.70;17.33;;;0.30;99.90;;;;;;5021560;28;20037;-70
2022/04/02 02:07:04;;;;;;;29.23;16.67;;;0.30;99.90;;;;;;5023958;28;20028;-70
2022/04/02 02:09:30;;;;;;;31.02;18.60;;;0.30;99.90;;;;;;5020529;28;20474;-70
2022/04/02 02:11:56;;;;;;;28.90;16.40;;;0.40;99.90;;;;;;5018385;28;20493;-70
2022/04/02 02:14:23;;;;;;;27.23;15.85;;;0.40;99.90;;;;;;5038703;28;20029;-70
2022/04/02 02:16:49;;;;;;;29.98;17.48;;;0.40;99.90;;;;;;5024695;28;20422;-70
2022/04/02 02:19:14;;;;;;;29.85;17.77;;;0.40;99.90;;;;;;5021917;28;20402;-71
2022/04/02 02:21:40;;;;;;;27.45;16.45;;;0.40;99.90;;;;;;5019693;28;20032;-70
2022/04/02 02:24:06;;;;;;;28.23;16.60;;;0.40;99.90;;;;;;5023324;28;20021;-70
2022/04/02 02:26:32;;;;;;;29.88;17.45;;;0.40;99.90;;;;;;5024111;28;20053;-70
2022/04/02 02:28:58;;;;;;;28.45;16.13;;;0.40;99.90;;;;;;5019926;28;20029;-70
2022/04/02 02:31:24;;;;;;;26.52;16.33;;;0.40;99.90;;;;;;5022021;28;20029;-70
2022/04/02 02:36:34;;;;;;;28.23;16.75;;;0.40;99.90;;;;;;5021921;28;20508;-70
2022/04/02 02:39:00;;;;;;;27.80;16.48;;;0.40;99.90;;;;;;5022626;28;20029;-70
2022/04/02 02:41:25;;;;;;;26.38;15.27;;;0.40;99.90;;;;;;5023189;28;20065;-70
2022/04/02 02:43:51;;;;;;;29.23;16.63;;;0.40;99.90;;;;;;5027172;28;20040;-71
2022/04/02 02:46:17;;;;;;;28.80;16.65;;;0.40;99.90;;;;;;5023490;28;20068;-71
2022/04/02 02:48:47;;;;;;;28.33;16.40;;;0.50;99.90;;;;;;5024610;28;20169;-70
2022/04/02 02:51:13;;;;;;;27.92;16.45;;;0.50;99.90;;;;;;5024142;28;20429;-70
2022/04/02 02:53:45;;;;;;;28.10;17.13;;;0.50;99.90;;;;;;5027100;28;20091;-71
2022/04/02 02:56:11;;;;;;;28.13;16.05;;;0.50;99.90;;;;;;5024517;28;20030;-70
2022/04/02 02:58:37;;;;;;;31.77;17.75;;;0.40;99.90;;;;;;5022481;28;20501;-70
2022/04/02 03:01:04;;;;;;;27.02;16.00;;;0.50;99.90;;;;;;5022667;28;20050;-70
2022/04/02 03:03:31;;;;;;;28.52;15.60;;;0.50;99.90;;;;;;5023048;28;20021;-70
2022/04/02 03:05:57;;;;;;;25.35;14.65;;;0.50;99.90;;;;;;5024748;28;20036;-70
2022/04/02 03:08:23;;;;;;;26.77;16.48;;;0.40;99.90;;;;;;5017479;28;20038;-70
2022/04/02 03:10:48;;;;;;;24.70;15.30;;;0.40;99.90;;;;;;5026946;28;20497;-70
2022/04/02 03:13:17;;;;;;;26.98;15.40;;;0.40;99.90;;;;;;5028510;28;20052;-71
2022/04/02 03:15:43;;;;;;;26.77;15.95;;;0.40;99.90;;;;;;5024112;28;20386;-70
2022/04/02 03:18:09;;;;;;;25.70;15.68;;;0.40;99.90;;;;;;5022837;28;20100;-70
2022/04/02 03:20:37;;;;;;;32.20;16.92;;;0.40;99.90;;;;;;5028390;28;20108;-70
2022/04/02 03:23:05;;;;;;;26.90;14.73;;;0.40;99.90;;;;;;5029440;28;20491;-70
2022/04/02 03:25:31;;;;;;;31.08;15.25;;;0.40;99.90;;;;;;5022741;28;20045;-70
2022/04/02 03:27:57;;;;;;;25.77;15.38;;;0.30;99.90;;;;;;5023162;28;20091;-70
2022/04/02 03:30:24;;;;;;;29.67;16.92;;;0.30;99.90;;;;;;5024324;28;20033;-70
2022/04/02 03:32:52;;;;;;;26.75;15.10;;;0.30;99.90;;;;;;5018977;28;20400;-71
2022/04/02 03:35:18;;;;;;;30.25;16.70;;;0.40;99.90;;;;;;5008345;28;20030;-72
2022/04/02 03:37:46;;;;;;;26.40;15.68;;;0.40;99.90;;;;;;5020165;28;20481;-71
2022/04/02 03:40:17;;;;;;;25.08;15.15;;;0.40;99.90;;;;;;5018049;28;20050;-71
2022/04/02 03:42:44;;;;;;;28.40;15.10;;;0.30;99.90;;;;;;5031644;28;20335;-70
2022/04/02 03:45:13;;;;;;;24.52;14.88;;;0.30;99.90;;;;;;5032095;28;20026;-70
2022/04/02 03:47:39;;;;;;;28.77;16.48;;;0.30;99.90;;;;;;5021427;28;20450;-71
2022/04/02 03:50:11;;;;;;;27.35;16.08;;;0.20;99.90;;;;;;5018495;28;20029;-71
2022/04/02 03:52:37;;;;;;;29.88;16.90;;;0.20;99.90;;;;;;5024468;28;21169;-72
2022/04/02 03:55:05;;;;;;;26.42;15.65;;;0.20;99.90;;;;;;5025048;28;20033;-73
2022/04/02 03:57:31;;;;;;;24.33;15.00;;;0.20;99.90;;;;;;5021126;28;20041;-73
2022/04/02 03:59:57;;;;;;;29.58;15.98;;;0.20;99.90;;;;;;5016084;28;20028;-73
2022/04/02 04:02:23;;;;;;;26.30;15.35;;;0.10;99.90;;;;;;5026167;28;20033;-73
2022/04/02 04:04:49;;;;;;;23.35;14.57;;;0.10;99.90;;;;;;5021369;28;20036;-72
2022/04/02 04:07:15;;;;;;;26.27;14.73;;;0.10;99.90;;;;;;5027758;28;20045;-73
2022/04/02 04:09:41;;;;;;;29.58;16.40;;;0.10;99.90;;;;;;5025576;28;20029;-72
2022/04/02 04:12:10;;;;;;;27.83;17.27;;;0.10;99.90;;;;;;5006255;28;20043;-72
2022/04/02 04:14:36;;;;;;;29.63;16.60;;;0.00;99.90;;;;;;5042798;28;20112;-73
2022/04/02 04:17:02;;;;;;;34.05;15.68;;;0.00;99.90;;;;;;5047440;28;20020;-72
2022/04/02 04:19:27;;;;;;;29.50;16.20;;;0.00;99.90;;;;;;5046338;28;20033;-72
2022/04/02 04:21:53;;;;;;;27.35;15.35;;;0.00;99.90;;;;;;5056044;28;20493;-71
2022/04/02 04:24:19;;;;;;;28.67;17.55;;;0.00;99.90;;;;;;5049824;28;20104;-72
2022/04/02 04:26:45;;;;;;;28.17;16.63;;;0.00;99.90;;;;;;5045767;28;20516;-72
2022/04/02 04:29:11;;;;;;;27.17;15.75;;;0.00;99.90;;;;;;5048338;28;20048;-72
2022/04/02 04:31:38;;;;;;;28.80;15.85;;;0.00;99.90;;;;;;5052726;28;20048;-73
2022/04/02 04:34:03;;;;;;;27.75;14.45;;;0.00;99.90;;;;;;5045129;28;20421;-73
2022/04/02 04:36:29;;;;;;;30.23;14.75;;;0.00;99.90;;;;;;5060056;28;20060;-73
2022/04/02 04:38:56;;;;;;;24.10;14.32;;;0.00;99.90;;;;;;5044325;28;20059;-72
2022/04/02 04:41:22;;;;;;;26.83;14.40;;;0.00;99.90;;;;;;5043596;28;20040;-72
2022/04/02 04:43:50;;;;;;;25.88;13.93;;;-0.10;99.90;;;;;;5046733;28;20029;-74
2022/04/02 04:46:18;;;;;;;25.60;13.45;;;-0.10;99.90;;;;;;5042248;28;20033;-73
2022/04/02 04:48:44;;;;;;;27.42;14.73;;;-0.20;99.90;;;;;;5045872;28;20026;-73
2022/04/02 04:51:11;;;;;;;26.05;13.13;;;-0.20;99.90;;;;;;5044656;28;20048;-73
2022/04/02 04:53:37;;;;;;;25.58;13.98;;;-0.20;99.90;;;;;;5044077;28;20681;-75
2022/04/02 04:56:04;;;;;;;25.52;12.95;;;-0.20;99.90;;;;;;5045881;28;20079;-73
2022/04/02 04:58:29;;;;;;;25.90;13.25;;;-0.20;99.90;;;;;;5040158;28;20059;-74
2022/04/02 05:00:57;;;;;;;25.73;12.98;;;-0.20;99.90;;;;;;5043176;28;20052;-74
2022/04/02 05:03:23;;;;;;;31.33;13.73;;;-0.20;99.90;;;;;;5039391;28;20021;-73
2022/04/02 05:05:49;;;;;;;25.50;12.65;;;-0.20;99.90;;;;;;5045680;28;20021;-73
2022/04/02 05:08:15;;;;;;;25.60;13.50;;;-0.30;99.90;;;;;;5044210;28;20109;-74
2022/04/02 05:10:41;;;;;;;24.15;12.85;;;-0.20;99.90;;;;;;5045657;28;20417;-74
2022/04/02 05:13:14;;;;;;;26.95;14.00;;;-0.30;99.90;;;;;;5045875;28;20028;-74
2022/04/02 05:15:44;;;;;;;27.63;14.00;;;-0.30;99.90;;;;;;5048816;28;20017;-74
2022/04/02 05:18:11;;;;;;;30.80;14.23;;;-0.30;99.90;;;;;;5046700;28;20174;-75
2022/04/02 05:20:41;;;;;;;31.75;14.60;;;-0.30;99.90;;;;;;5041628;28;20056;-75
2022/04/02 05:23:07;;;;;;;32.05;15.35;;;-0.30;99.90;;;;;;5041855;28;20033;-74
2022/04/02 05:25:34;;;;;;;27.33;15.13;;;-0.30;99.90;;;;;;5044200;28;20432;-75
2022/04/02 05:28:02;;;;;;;24.00;14.60;;;-0.20;99.90;;;;;;5045941;28;20029;-75
2022/04/02 05:30:28;;;;;;;25.23;13.60;;;-0.20;99.90;;;;;;5039895;28;20199;-75
2022/04/02 05:32:55;;;;;;;25.20;14.00;;;-0.20;99.90;;;;;;5041495;28;20025;-75
2022/04/02 05:35:22;;;;;;;28.35;15.48;;;-0.20;99.90;;;;;;5041224;28;20063;-75
2022/04/02 05:37:49;;;;;;;26.33;14.65;;;-0.20;99.90;;;;;;5046021;28;20017;-75
2022/04/02 05:40:15;;;;;;;26.40;14.20;;;-0.20;99.90;;;;;;5043240;28;20020;-74
2022/04/02 05:42:41;;;;;;;24.80;12.07;;;-0.20;99.90;;;;;;5041770;28;20112;-74
2022/04/02 05:45:08;;;;;;;23.45;12.48;;;-0.20;99.90;;;;;;5043515;28;20068;-74
2022/04/02 05:47:47;;;;;;;18.48;10.70;;;-0.20;99.90;;;;;;5045040;28;20497;-75
2022/04/02 05:50:14;;;;;;;21.13;10.80;;;-0.20;99.90;;;;;;5044856;28;20033;-75
2022/04/02 05:52:40;;;;;;;18.92;10.82;;;-0.30;99.90;;;;;;5042655;28;21297;-75
2022/04/02 05:55:07;;;;;;;22.65;11.98;;;-0.30;99.90;;;;;;5041039;28;20024;-75
2022/04/02 05:57:34;;;;;;;22.27;11.75;;;-0.30;99.90;;;;;;5044467;28;20033;-76
2022/04/02 06:00:01;;;;;;;18.38;11.20;;;-0.20;99.90;;;;;;5041128;28;20040;-75
2022/04/02 06:02:27;;;;;;;16.45;10.23;;;-0.20;99.90;;;;;;5037289;28;20032;-75
2022/04/02 06:04:54;;;;;;;18.60;10.68;;;-0.30;99.90;;;;;;5045559;28;20108;-75
2022/04/02 06:07:20;;;;;;;22.15;11.65;;;-0.20;99.90;;;;;;5042465;28;20039;-75
2022/04/02 06:09:45;;;;;;;19.95;11.05;;;-0.20;99.90;;;;;;5042248;28;20501;-75
2022/04/02 06:12:11;;;;;;;19.40;11.52;;;-0.30;99.90;;;;;;5043479;28;20024;-75
2022/04/02 06:14:37;;;;;;;22.30;10.65;;;-0.20;99.90;;;;;;5042602;28;20037;-75
2022/04/02 06:17:02;;;;;;;21.48;11.45;;;-0.30;99.90;;;;;;5041318;28;20040;-75
2022/04/02 06:19:28;;;;;;;20.38;11.93;;;-0.20;99.90;;;;;;5043499;28;20362;-74
2022/04/02 06:21:54;;;;;;;21.65;11.63;;;-0.20;99.90;;;;;;5042774;28;20024;-73
2022/04/02 06:24:19;;;;;;;21.73;10.77;;;-0.20;99.90;;;;;;5044462;28;20612;-73
2022/04/02 06:26:45;;;;;;;20.02;12.23;;;-0.20;99.90;;;;;;5044912;28;20044;-73
2022/04/02 06:29:10;;;;;;;19.15;11.48;;;-0.10;99.90;;;;;;5040134;28;20056;-74
2022/04/02 06:31:36;;;;;;;21.15;11.20;;;-0.10;99.90;;;;;;5040575;28;20037;-75
2022/04/02 06:34:02;;;;;;;21.08;10.45;;;-0.10;99.90;;;;;;5034600;28;20040;-74
2022/04/02 06:36:28;;;;;;;17.35;10.88;;;-0.10;99.90;;;;;;5041859;28;20024;-75
2022/04/02 06:38:54;;;;;;;20.42;10.40;;;0.00;99.90;;;;;;5045901;28;20029;-75
2022/04/02 06:41:19;;;;;;;17.92;10.85;;;0.00;99.90;;;;;;5042502;28;20075;-74
2022/04/02 06:43:45;;;;;;;19.65;11.13;;;0.00;99.90;;;;;;5040390;28;20033;-76
2022/04/02 06:46:10;;;;;;;17.27;9.32;;;0.00;99.90;;;;;;5045229;28;20021;-76
2022/04/02 06:48:36;;;;;;;22.92;10.63;;;0.00;99.90;;;;;;5046488;28;20625;-77
2022/04/02 06:51:02;;;;;;;19.27;10.93;;;0.00;99.90;;;;;;5046101;28;20052;-77
2022/04/02 06:53:27;;;;;;;18.33;10.82;;;0.00;99.90;;;;;;5037087;28;20108;-76
2022/04/02 06:55:53;;;;;;;14.25;9.02;;;0.00;99.90;;;;;;5044729;28;20036;-75
2022/04/02 06:58:32;;;;;;;16.23;9.77;;;0.00;99.90;;;;;;5043806;28;20017;-74
2022/04/02 07:00:58;;;;;;;18.00;10.02;;;0.00;99.90;;;;;;5041098;28;20021;-77
2022/04/02 07:03:24;;;;;;;18.15;10.25;;;0.00;99.90;;;;;;5043957;28;20032;-77
2022/04/02 07:05:50;;;;;;;15.82;9.57;;;0.00;99.90;;;;;;5048183;28;20024;-75
2022/04/02 07:08:16;;;;;;;15.13;9.40;;;-0.10;99.90;;;;;;5047426;28;20099;-75
2022/04/02 07:10:41;;;;;;;17.90;9.85;;;-0.10;99.90;;;;;;5041257;28;20481;-76
2022/04/02 07:13:07;;;;;;;16.02;10.40;;;-0.10;99.90;;;;;;5039837;28;20034;-75
2022/04/02 07:15:33;;;;;;;15.95;9.48;;;-0.10;99.90;;;;;;5041692;28;20044;-76
2022/04/02 07:18:06;;;;;;;18.95;9.68;;;-0.10;99.90;;;;;;5044474;28;20482;-75
2022/04/02 07:20:35;;;;;;;12.38;8.32;;;0.00;99.90;;;;;;5045786;28;20037;-75
2022/04/02 07:23:03;;;;;;;14.38;9.15;;;-0.10;99.90;;;;;;5048461;28;20159;-76
2022/04/02 07:25:29;;;;;;;15.07;8.93;;;-0.10;99.90;;;;;;5043287;28;20026;-77
2022/04/02 07:28:02;;;;;;;20.08;10.00;;;-0.10;99.90;;;;;;5041676;28;20071;-76
2022/04/02 07:30:28;;;;;;;14.02;9.20;;;0.00;99.90;;;;;;5039674;28;20029;-76
2022/04/02 07:32:53;;;;;;;15.18;9.60;;;0.00;99.90;;;;;;5044099;28;20021;-76
2022/04/02 07:35:19;;;;;;;12.40;8.65;;;0.00;99.90;;;;;;5039710;28;20029;-77
2022/04/02 07:38:02;;;;;;;12.88;8.20;;;0.00;99.90;;;;;;5042378;28;20029;-77
2022/04/02 07:40:40;;;;;;;13.23;8.40;;;0.00;99.90;;;;;;5044458;28;20029;-77
2022/04/02 07:43:19;;;;;;;11.82;8.35;;;0.00;99.90;;;;;;5038016;28;20052;-77
2022/04/02 07:45:51;;;;;;;14.40;8.90;;;0.00;99.90;;;;;;5046222;28;20059;-77
2022/04/02 07:48:18;;;;;;;18.23;8.68;;;0.00;99.90;;;;;;5048644;28;20028;-77
2022/04/02 07:50:46;;;;;;;12.57;8.10;;;-0.10;99.90;;;;;;5044636;28;20036;-77
2022/04/02 07:53:20;;;;;;;15.60;8.35;;;-0.10;99.90;;;;;;5044931;28;20035;-77
2022/04/02 07:55:58;;;;;;;13.55;8.10;;;-0.10;99.90;;;;;;5046221;28;20033;-77
2022/04/02 07:58:32;;;;;;;14.40;8.77;;;0.00;99.90;;;;;;5046662;28;20021;-77
2022/04/02 08:01:01;;;;;;;13.25;8.55;;;0.00;99.90;;;;;;5046097;28;20107;-75
2022/04/02 08:03:29;;;;;;;14.65;9.10;;;0.00;99.90;;;;;;5040475;28;20823;-75
2022/04/02 08:05:55;;;;;;;13.02;8.60;;;0.00;99.90;;;;;;5048444;28;20039;-75
2022/04/02 08:08:25;;;;;;;15.02;9.07;;;0.10;99.90;;;;;;5044863;28;20025;-75
2022/04/02 08:10:55;;;;;;;18.33;10.57;;;0.10;99.90;;;;;;5042493;28;20420;-74
2022/04/02 08:13:22;;;;;;;12.85;8.73;;;0.20;99.90;;;;;;5042534;28;20444;-72
2022/04/02 08:15:54;;;;;;;12.48;8.00;;;0.10;99.90;;;;;;5039831;28;20047;-72
2022/04/02 08:18:26;;;;;;;16.00;9.10;;;0.20;99.90;;;;;;5044118;28;20485;-74
2022/04/02 08:20:52;;;;;;;12.75;8.27;;;0.20;99.90;;;;;;5045633;28;20032;-73
2022/04/02 08:23:18;;;;;;;13.68;8.32;;;0.20;99.90;;;;;;5038509;28;20475;-73
2022/04/02 08:26:05;;;;;;;13.57;8.07;;;0.20;99.90;;;;;;5041234;28;20029;-74
2022/04/02 08:28:43;;;;;;;15.18;9.40;;;0.20;99.90;;;;;;5036687;28;20033;-74
2022/04/02 08:31:19;;;;;;;13.63;8.43;;;0.20;99.90;;;;;;5036916;28;20029;-74
2022/04/02 08:33:56;;;;;;;12.95;7.97;;;0.20;99.90;;;;;;5047336;28;20029;-73
2022/04/02 08:36:35;;;;;;;13.30;8.90;;;0.30;99.90;;;;;;5045196;28;20121;-73
2022/04/02 08:39:16;;;;;;;19.88;8.90;;;0.20;99.90;;;;;;5046088;28;20431;-74
2022/04/02 08:42:09;;;;;;;13.68;8.82;;;0.30;99.90;;;;;;5044336;28;20032;-73
2022/04/02 08:45:02;;;;;;;14.00;7.95;;;0.20;99.90;;;;;;5039311;28;20095;-73
2022/04/02 08:48:09;;;;;;;14.98;8.30;;;0.20;99.90;;;;;;5048949;28;20087;-73
2022/04/02 08:50:38;;;;;;;11.60;7.75;;;0.20;99.90;;;;;;5042338;28;20119;-73
2022/04/02 08:53:34;;;;;;;13.65;7.78;;;0.10;99.90;;;;;;5046497;28;20045;-72
2022/04/02 08:56:06;;;;;;;18.58;9.52;;;0.10;99.90;;;;;;5044452;28;20116;-73
2022/04/02 08:58:50;;;;;;;14.43;8.75;;;0.20;99.90;;;;;;5045993;28;20443;-73
2022/04/02 09:01:24;;;;;;;16.38;9.52;;;0.20;99.90;;;;;;5045980;28;20082;-73
2022/04/02 09:03:50;;;;;;;;;;;0.10;99.90;;;;;;5049397;28;20029;-73
2022/04/02 09:06:50;;;;;;;13.88;8.30;;;0.20;99.90;;;;;;5046825;28;19915;-72
2022/04/02 09:09:53;;;;;;;13.50;8.30;;;0.20;99.90;;;;;;5044032;28;20683;-72
2022/04/02 09:12:35;;;;;;;16.17;8.50;;;0.10;99.90;;;;;;5040802;28;20034;-72
2022/04/02 09:15:17;;;;;;;12.43;7.38;;;0.10;99.90;;;;;;5046575;28;20053;-72
2022/04/02 09:17:55;;;;;;;12.02;7.75;;;0.00;99.90;;;;;;5036870;28;20044;-73
2022/04/02 09:20:36;;;;;;;11.93;7.93;;;0.10;99.90;;;;;;5040234;28;20063;-73
2022/04/02 09:23:17;;;;;;;18.45;9.13;;;0.10;99.90;;;;;;5038334;28;20056;-72
2022/04/02 09:26:08;;;;;;;15.60;9.10;;;0.10;99.90;;;;;;5042826;28;20492;-72
2022/04/02 09:28:44;;;;;;;15.30;8.55;;;0.20;99.90;;;;;;5044328;28;20021;-72
2022/04/02 09:31:45;;;;;;;16.10;8.52;;;0.20;99.90;;;;;;5042539;28;20112;-72
2022/04/02 09:34:48;;;;;;;14.20;8.60;;;0.20;99.90;;;;;;5044251;28;20021;-72
2022/04/02 09:37:32;;;;;;;13.18;7.95;;;0.20;99.90;;;;;;5041269;28;20481;-73
2022/04/02 09:40:06;;;;;;;13.68;7.93;;;0.20;99.90;;;;;;5045702;28;20049;-72
2022/04/02 09:42:41;;;;;;;21.70;9.25;;;0.20;99.90;;;;;;5045089;28;20075;-74
2022/04/02 09:45:09;;;;;;;13.85;7.95;;;0.30;99.90;;;;;;5042566;28;20374;-72
2022/04/02 09:47:58;;;;;;;14.52;7.65;;;0.40;99.90;;;;;;5043820;28;20033;-72
2022/04/02 09:50:26;;;;;;;15.13;8.52;;;0.40;99.90;;;;;;5044431;28;20045;-73
2022/04/02 09:53:04;;;;;;;15.80;8.63;;;0.40;99.90;;;;;;5045441;28;20050;-73
2022/04/02 09:55:44;;;;;;;13.50;7.93;;;0.40;99.90;;;;;;5045993;28;20025;-75
2022/04/02 09:58:53;;;;;;;13.90;7.53;;;0.40;99.90;;;;;;5043634;28;20022;-73
2022/04/02 10:01:45;;;;;;;15.93;8.63;;;0.40;99.90;;;;;;5045319;28;20472;-74
2022/04/02 10:04:22;;;;;;;19.77;8.48;;;0.30;99.90;;;;;;5043064;28;20033;-74
2022/04/02 10:06:49;;;;;;;18.02;9.40;;;0.30;99.90;;;;;;5045467;28;20032;-76
2022/04/02 10:09:19;;;;;;;17.85;8.88;;;0.40;99.90;;;;;;5043399;28;20036;-74
2022/04/02 10:11:57;;;;;;;13.15;8.27;;;0.40;99.90;;;;;;5040920;28;20105;-72
2022/04/02 10:14:28;;;;;;;15.65;9.07;;;0.40;99.90;;;;;;5046422;28;20409;-73
2022/04/02 10:16:58;;;;;;;21.55;10.38;;;0.40;99.90;;;;;;5044597;28;20482;-73
2022/04/02 10:19:32;;;;;;;19.08;10.15;;;0.50;99.90;;;;;;5045937;28;20036;-73
2022/04/02 10:22:04;;;;;;;15.40;8.80;;;0.60;99.90;;;;;;5045699;28;20094;-73
2022/04/02 10:24:37;;;;;;;15.18;8.52;;;0.50;99.90;;;;;;5039706;28;20061;-73
2022/04/02 10:27:04;;;;;;;12.87;8.00;;;0.60;99.90;;;;;;5045703;28;20016;-73
2022/04/02 10:29:41;;;;;;;16.63;8.07;;;0.60;99.90;;;;;;5042469;28;20029;-73
2022/04/02 10:32:47;;;;;;;12.23;7.82;;;0.70;99.90;;;;;;5043038;28;20108;-73
2022/04/02 10:35:14;;;;;;;12.48;6.75;;;0.60;99.90;;;;;;5042947;28;20150;-72
2022/04/02 10:37:40;;;;;;;13.27;8.05;;;0.50;99.90;;;;;;5041241;28;20043;-73
2022/04/02 10:40:09;;;;;;;11.48;7.95;;;0.40;99.90;;;;;;5043571;28;20568;-73
2022/04/02 10:42:40;;;;;;;12.05;7.65;;;0.40;99.90;;;;;;5041227;28;21130;-74
2022/04/02 10:45:12;;;;;;;19.42;9.80;;;0.40;99.90;;;;;;5036558;28;20029;-74
2022/04/02 10:48:02;;;;;;;15.32;8.13;;;0.40;99.90;;;;;;5042145;28;20033;-75
2022/04/02 10:50:29;;;;;;;14.40;8.85;;;0.40;99.90;;;;;;5042709;28;20037;-74
2022/04/02 10:53:01;;;;;;;15.20;8.68;;;0.40;99.90;;;;;;5041576;28;20075;-73
2022/04/02 10:55:28;;;;;;;14.13;7.93;;;0.40;99.90;;;;;;5043131;28;20025;-73
2022/04/02 10:57:56;;;;;;;15.82;8.48;;;0.30;99.90;;;;;;5040765;28;20132;-74
2022/04/02 11:00:26;;;;;;;15.70;9.25;;;0.30;99.90;;;;;;5044537;28;20025;-76
2022/04/02 11:03:04;;;;;;;18.63;9.80;;;0.20;99.90;;;;;;5040127;28;20128;-76
2022/04/02 11:05:35;;;;;;;25.05;10.85;;;0.20;99.90;;;;;;5036775;28;20022;-74
2022/04/02 11:08:09;;;;;;;18.25;10.38;;;0.30;99.90;;;;;;5041010;28;20037;-74
2022/04/02 11:10:35;;;;;;;16.27;9.85;;;0.30;99.90;;;;;;5043633;28;20071;-75
2022/04/02 11:13:04;;;;;;;16.77;9.55;;;0.30;99.90;;;;;;5040109;28;20335;-76
2022/04/02 11:15:37;;;;;;;17.70;10.15;;;0.40;99.90;;;;;;5033279;28;20025;-76
2022/04/02 11:18:03;;;;;;;18.45;9.90;;;0.40;99.90;;;;;;5039975;28;20037;-74
2022/04/02 11:20:31;;;;;;;18.75;10.88;;;0.40;99.90;;;;;;5041019;28;20037;-78
2022/04/02 11:23:19;;;;;;;15.25;9.00;;;0.50;99.90;;;;;;5044520;28;20043;-73
2022/04/02 11:25:52;;;;;;;15.88;9.45;;;0.40;99.90;;;;;;5041612;28;20021;-73
2022/04/02 11:28:20;;;;;;;16.90;10.23;;;0.40;99.90;;;;;;5044495;28;20025;-72
2022/04/02 11:31:01;;;;;;;19.23;10.27;;;0.30;99.90;;;;;;5044438;28;20045;-72
2022/04/02 11:33:27;;;;;;;16.83;10.52;;;0.40;99.90;;;;;;5040853;28;20055;-72
2022/04/02 11:35:57;;;;;;;16.02;9.77;;;0.40;99.90;;;;;;5038741;28;20040;-76
2022/04/02 11:38:29;;;;;;;16.65;9.85;;;0.40;99.90;;;;;;5041433;28;20108;-76
2022/04/02 11:41:06;;;;;;;17.35;9.27;;;0.40;99.90;;;;;;5034527;28;20058;-73
2022/04/02 11:43:37;;;;;;;18.20;10.80;;;0.30;99.90;;;;;;5034281;28;20033;-75
2022/04/02 11:46:06;;;;;;;15.57;9.95;;;0.40;99.90;;;;;;5040820;28;20548;-74
2022/04/02 11:48:36;;;;;;;16.88;9.95;;;0.40;99.90;;;;;;5040522;28;20040;-75
2022/04/02 11:51:12;;;;;;;18.10;11.00;;;0.40;99.90;;;;;;5038026;28;20486;-74
2022/04/02 11:53:38;;;;;;;20.65;10.90;;;0.40;99.90;;;;;;5035211;28;20022;-72
2022/04/02 11:56:21;;;;;;;18.90;11.07;;;0.40;99.90;;;;;;5039089;28;20037;-74
2022/04/02 11:58:48;;;;;;;18.88;10.95;;;0.50;99.90;;;;;;5036875;28;20560;-73
2022/04/02 12:01:15;;;;;;;19.48;11.18;;;0.50;99.90;;;;;;5033246;28;20049;-74
2022/04/02 12:03:41;;;;;;;18.80;10.98;;;0.50;99.90;;;;;;5039267;28;20594;-75
2022/04/02 12:06:11;;;;;;;17.52;10.45;;;0.50;99.90;;;;;;5044133;28;20104;-73
2022/04/02 12:08:40;;;;;;;17.23;9.95;;;0.40;99.90;;;;;;5045723;28;20028;-74
2022/04/02 12:11:10;;;;;;;19.00;10.70;;;0.40;99.90;;;;;;5043750;28;20052;-73
2022/04/02 12:13:36;;;;;;;19.15;11.00;;;0.30;99.90;;;;;;5043037;28;20113;-73
2022/04/02 12:16:09;;;;;;;19.48;10.93;;;0.40;99.90;;;;;;5041954;28;20071;-73
2022/04/02 12:18:54;;;;;;;14.48;8.60;;;0.40;99.90;;;;;;5044459;28;20033;-74
2022/04/02 12:21:32;;;;;;;17.33;10.55;;;0.40;99.90;;;;;;5041804;28;20033;-74
2022/04/02 12:24:01;;;;;;;18.67;11.65;;;0.30;99.90;;;;;;5045720;28;20061;-74
2022/04/02 12:26:27;;;;;;;19.05;10.65;;;0.40;99.90;;;;;;5046681;28;20040;-73
2022/04/02 12:28:58;;;;;;;18.35;10.75;;;0.30;99.90;;;;;;5045145;28;20033;-73
2022/04/02 12:31:27;;;;;;;17.83;10.40;;;0.40;99.90;;;;;;5041436;28;20029;-73
2022/04/02 12:33:54;;;;;;;17.48;10.30;;;0.50;99.90;;;;;;5041244;28;20025;-73
2022/04/02 12:36:43;;;;;;;17.17;11.00;;;0.60;99.90;;;;;;5043369;28;20410;-74
2022/04/02 12:39:10;;;;;;;18.50;10.07;;;0.80;99.90;;;;;;5048516;28;20060;-73
2022/04/02 12:41:48;;;;;;;16.13;10.00;;;0.80;99.90;;;;;;5047468;28;20037;-74
2022/04/02 12:44:19;;;;;;;16.65;10.23;;;0.90;99.90;;;;;;5039667;28;20029;-76
2022/04/02 12:46:46;;;;;;;18.58;11.13;;;1.00;99.90;;;;;;5045394;28;20027;-74
2022/04/02 12:49:35;;;;;;;16.10;10.55;;;0.90;99.90;;;;;;5042654;28;20072;-73
2022/04/02 12:52:16;;;;;;;21.52;11.85;;;0.70;99.90;;;;;;5036505;28;20374;-75
2022/04/02 12:54:53;;;;;;;22.50;11.18;;;0.60;99.90;;;;;;5047939;28;20040;-74
2022/04/02 12:57:19;;;;;;;24.48;12.77;;;0.40;99.90;;;;;;5039188;28;20021;-74